2022年5月27日

时间 代码 天气 温度 能见度 天花板 METAR/SPECI
1:30 下午
V
72 °F 6¼ mi+ - 330° 330° 11 kt METAR LFSL 271130Z AUTO 33011KT 300V360 9999 FEW031 22/13 Q1025 NOSIG
1:00 下午
V
70 °F 6¼ mi+ - 330° 330° 11 kt METAR LFSL 271100Z AUTO 33011KT 280V360 9999 SCT031 21/13 Q1025 NOSIG
12:30 下午
M
70 °F 6¼ mi+ 2.800 ft 320° 320° 10 kt METAR LFSL 271030Z AUTO 32010KT 280V340 9999 BKN028 21/12 Q1025 NOSIG
12:00 下午
M
68 °F 6¼ mi+ 2.700 ft 340° 340° 10 kt METAR LFSL 271000Z AUTO 34010KT 300V360 9999 BKN027 20/12 Q1025 NOSIG
11:30 上午
M
66 °F 6¼ mi+ 2.400 ft 330° 330° 10 kt METAR LFSL 270930Z AUTO 33010KT 300V360 9999 BKN024 19/12 Q1025 NOSIG
11:00 上午
V
66 °F 6¼ mi+ - 360° 360° 8 kt METAR LFSL 270900Z AUTO 36008KT 330V030 9999 SCT024 19/12 Q1025 NOSIG
10:30 上午
V
66 °F 6¼ mi+ - 320° 320° 11 kt METAR LFSL 270830Z AUTO 32011KT 9999 FEW024 19/12 Q1025 NOSIG
10:00 上午
V
64 °F 6¼ mi+ - 330° 330° 10 kt METAR LFSL 270800Z AUTO 33010KT 300V020 CAVOK 18/12 Q1026 NOSIG
9:30 上午
V
61 °F 6¼ mi+ - 320° 320° 10 kt METAR LFSL 270730Z AUTO 32010KT 300V360 9999 ////// 16/12 Q1026

2022年5月25日

时间 代码 天气 温度 能见度 天花板 METAR/SPECI
7:30 下午
V
66 °F 6¼ mi+ - 310° 310° 9 kt METAR LFSL 251730Z AUTO 31009KT 270V330 CAVOK 19/07 Q1023 NOSIG
7:00 下午
V
68 °F 6¼ mi+ - 300° 300° 12 kt METAR LFSL 251700Z AUTO 30012KT 250V320 CAVOK 20/07 Q1022 NOSIG
6:30 下午
V
68 °F 6¼ mi+ 7.000 ft 290° 290° 10 kt METAR LFSL 251630Z AUTO 29010KT 240V320 9999 FEW001 BKN070 20/07 Q1022 NOSIG
6:00 下午
V
66 °F 6¼ mi+ - 290° 290° 8 kt METAR LFSL 251600Z AUTO 29008KT 240V320 CAVOK 19/07 Q1022 NOSIG
5:30 下午
V
68 °F 6¼ mi+ - 330° 330° 10 kt METAR LFSL 251530Z AUTO 33010KT CAVOK 20/07 Q1022 NOSIG
5:00 下午
V
68 °F 6¼ mi+ - 320° 320° 10 kt METAR LFSL 251500Z AUTO 32010KT CAVOK 20/07 Q1022 NOSIG
4:30 下午
V
68 °F 6¼ mi+ - 340° 340° 12 kt METAR LFSL 251430Z AUTO 34012KT 9999 NCD 20/07 Q1022 NOSIG
4:00 下午
V
66 °F 6¼ mi+ - 330° 330° 7 kt METAR LFSL 251400Z AUTO 33007KT 260V020 9999 NCD 19/08 Q1022 NOSIG
3:30 下午
V
66 °F 6¼ mi+ 7.000 ft 290° 290° 6 kt METAR LFSL 251330Z AUTO 29006KT 220V020 9999 SCT047 OVC070 19/07 Q1022 NOSIG
3:00 下午
V
63 °F 6¼ mi+ - 340° 340° 7 kt METAR LFSL 251300Z AUTO 34007KT CAVOK 17/08 Q1022 NOSIG
2:30 下午
V
64 °F 6¼ mi+ 6.400 ft 310° 310° 10 kt METAR LFSL 251230Z AUTO 31010KT 260V350 9999 SCT040 SCT052 BKN064 18/08 Q1022 NOSIG
2:00 下午
V
64 °F 6¼ mi+ 6.600 ft 320° 320° 8 kt METAR LFSL 251200Z AUTO 32008KT 270V360 9999 FEW037 SCT056 BKN066 18/08 Q1021 NOSIG
较旧的数据

下载我们的应用程序

在您的手机和平板电脑上轻松访问所有航空天气。
有许多网站上没有的功能,如离线支持和个人机场列表。

Studio Eveline

Benalmádena
España

我们和第三方通过cookies跟踪您在我们网站上的上网行为。如果您继续,我们认为您同意我们的cookie政策。 了解更多